sensor_id;sensor_type;location;lat;lon;timestamp;P1;durP1;ratioP1;P2;durP2;ratioP2
59167;SDS011;44948;55.046;73.266;2023-01-08T09:45:14;17.92;;;3.58;;
59167;SDS011;44948;55.046;73.266;2023-01-08T09:46:57;10.30;;;4.22;;
59167;SDS011;44948;55.046;73.266;2023-01-08T09:48:40;11.05;;;4.57;;
59167;SDS011;44948;55.046;73.266;2023-01-08T09:50:22;15.15;;;5.47;;
59167;SDS011;44948;55.046;73.266;2023-01-08T09:52:05;15.57;;;6.70;;
59167;SDS011;44948;55.046;73.266;2023-01-08T09:53:49;16.13;;;4.95;;
59167;SDS011;44948;55.046;73.266;2023-01-08T09:55:33;8.60;;;4.80;;
59167;SDS011;44948;55.046;73.266;2023-01-08T09:57:16;13.50;;;5.13;;
59167;SDS011;44948;55.046;73.266;2023-01-08T09:58:58;11.13;;;5.05;;
59167;SDS011;44948;55.046;73.266;2023-01-08T10:00:40;10.77;;;5.03;;
59167;SDS011;44948;55.046;73.266;2023-01-08T10:02:23;8.70;;;4.22;;
59167;SDS011;44948;55.046;73.266;2023-01-08T10:04:09;17.27;;;5.10;;
59167;SDS011;44948;55.046;73.266;2023-01-08T10:05:54;11.95;;;5.65;;
59167;SDS011;44948;55.046;73.266;2023-01-08T10:07:37;14.07;;;5.15;;
59167;SDS011;44948;55.046;73.266;2023-01-08T10:09:20;14.27;;;5.57;;
59167;SDS011;44948;55.046;73.266;2023-01-08T10:11:04;22.33;;;7.50;;
59167;SDS011;44948;55.046;73.266;2023-01-08T10:12:46;13.55;;;5.57;;
59167;SDS011;44948;55.046;73.266;2023-01-08T10:14:30;11.95;;;4.90;;
59167;SDS011;44948;55.046;73.266;2023-01-08T10:16:16;8.68;;;3.97;;
59167;SDS011;44948;55.046;73.266;2023-01-08T10:18:04;11.05;;;5.68;;
59167;SDS011;44948;55.046;73.266;2023-01-08T10:19:47;16.08;;;5.45;;
59167;SDS011;44948;55.046;73.266;2023-01-08T10:21:30;10.93;;;4.93;;
59167;SDS011;44948;55.046;73.266;2023-01-08T10:23:14;10.48;;;4.43;;
59167;SDS011;44948;55.046;73.266;2023-01-08T10:25:10;11.30;;;3.72;;
59167;SDS011;44948;55.046;73.266;2023-01-08T10:26:53;11.18;;;4.20;;
59167;SDS011;44948;55.046;73.266;2023-01-08T10:28:36;9.68;;;4.05;;
59167;SDS011;44948;55.046;73.266;2023-01-08T10:30:32;7.18;;;2.67;;
59167;SDS011;44948;55.046;73.266;2023-01-08T10:32:16;8.77;;;4.03;;
59167;SDS011;44948;55.046;73.266;2023-01-08T10:34:05;11.48;;;3.92;;
59167;SDS011;44948;55.046;73.266;2023-01-08T10:35:50;15.20;;;4.47;;
59167;SDS011;44948;55.046;73.266;2023-01-08T10:37:36;10.75;;;3.80;;
59167;SDS011;44948;55.046;73.266;2023-01-08T10:39:23;9.68;;;4.57;;
59167;SDS011;44948;55.046;73.266;2023-01-08T10:41:09;8.85;;;4.18;;
59167;SDS011;44948;55.046;73.266;2023-01-08T10:42:52;7.78;;;3.85;;
59167;SDS011;44948;55.046;73.266;2023-01-08T10:46:20;19.25;;;7.43;;
59167;SDS011;44948;55.046;73.266;2023-01-08T10:48:04;22.83;;;9.02;;
59167;SDS011;44948;55.046;73.266;2023-01-08T10:49:47;21.20;;;9.75;;
59167;SDS011;44948;55.046;73.266;2023-01-08T10:51:30;16.25;;;7.00;;
59167;SDS011;44948;55.046;73.266;2023-01-08T10:53:25;18.60;;;7.15;;
59167;SDS011;44948;55.046;73.266;2023-01-08T10:55:22;14.20;;;6.13;;
59167;SDS011;44948;55.046;73.266;2023-01-08T10:59:16;19.50;;;7.82;;
59167;SDS011;44948;55.046;73.266;2023-01-08T11:01:40;14.55;;;5.45;;
59167;SDS011;44948;55.046;73.266;2023-01-08T11:03:04;14.55;;;6.68;;
59167;SDS011;44948;55.046;73.266;2023-01-08T11:04:49;12.07;;;5.22;;
59167;SDS011;44948;55.046;73.266;2023-01-08T11:06:33;14.85;;;5.70;;
59167;SDS011;44948;55.046;73.266;2023-01-08T11:08:17;12.43;;;5.35;;
59167;SDS011;44948;55.046;73.266;2023-01-08T11:10:02;14.82;;;5.38;;
59167;SDS011;44948;55.046;73.266;2023-01-08T11:11:47;13.40;;;5.55;;
59167;SDS011;44948;55.046;73.266;2023-01-08T11:13:30;15.67;;;5.50;;
59167;SDS011;44948;55.046;73.266;2023-01-08T11:16:58;13.93;;;6.18;;
59167;SDS011;44948;55.046;73.266;2023-01-08T11:18:46;16.40;;;6.70;;
59167;SDS011;44948;55.046;73.266;2023-01-08T11:20:29;13.93;;;5.35;;
59167;SDS011;44948;55.046;73.266;2023-01-08T11:22:18;12.68;;;5.32;;
59167;SDS011;44948;55.046;73.266;2023-01-08T11:24:19;13.88;;;6.30;;
59167;SDS011;44948;55.046;73.266;2023-01-08T11:26:04;15.68;;;6.03;;
59167;SDS011;44948;55.046;73.266;2023-01-08T11:27:47;12.65;;;6.03;;
59167;SDS011;44948;55.046;73.266;2023-01-08T11:29:35;15.52;;;6.22;;
59167;SDS011;44948;55.046;73.266;2023-01-08T11:31:24;16.55;;;6.07;;
59167;SDS011;44948;55.046;73.266;2023-01-08T11:33:12;14.90;;;6.07;;
59167;SDS011;44948;55.046;73.266;2023-01-08T11:36:43;11.70;;;5.43;;
59167;SDS011;44948;55.046;73.266;2023-01-08T11:38:27;10.65;;;5.50;;
59167;SDS011;44948;55.046;73.266;2023-01-08T11:40:12;13.68;;;5.95;;
59167;SDS011;44948;55.046;73.266;2023-01-08T11:42:14;12.63;;;5.50;;
59167;SDS011;44948;55.046;73.266;2023-01-08T11:55:00;11.48;;;4.82;;
59167;SDS011;44948;55.046;73.266;2023-01-08T11:58:38;13.20;;;4.32;;
59167;SDS011;44948;55.046;73.266;2023-01-08T12:04:17;12.05;;;4.45;;
59167;SDS011;44948;55.046;73.266;2023-01-08T12:07:58;14.07;;;5.32;;
59167;SDS011;44948;55.046;73.266;2023-01-08T12:09:42;18.77;;;5.53;;
59167;SDS011;44948;55.046;73.266;2023-01-08T12:20:49;17.30;;;6.35;;
59167;SDS011;44948;55.046;73.266;2023-01-08T12:24:31;23.92;;;6.50;;
59167;SDS011;44948;55.046;73.266;2023-01-08T12:32:22;19.58;;;5.88;;
59167;SDS011;44948;55.046;73.266;2023-01-08T12:35:47;14.88;;;6.00;;
59167;SDS011;44948;55.046;73.266;2023-01-08T12:39:14;19.10;;;7.90;;
59167;SDS011;44948;55.046;73.266;2023-01-08T12:41:03;15.38;;;6.43;;
59167;SDS011;44948;55.046;73.266;2023-01-08T12:42:46;17.73;;;7.00;;
59167;SDS011;44948;55.046;73.266;2023-01-08T12:44:30;22.42;;;7.03;;
59167;SDS011;44948;55.046;73.266;2023-01-08T12:46:13;26.92;;;5.25;;
59167;SDS011;44948;55.046;73.266;2023-01-08T12:47:58;11.85;;;4.85;;
59167;SDS011;44948;55.046;73.266;2023-01-08T12:49:41;17.08;;;4.10;;
59167;SDS011;44948;55.046;73.266;2023-01-08T12:51:40;8.55;;;3.72;;
59167;SDS011;44948;55.046;73.266;2023-01-08T12:55:28;14.65;;;5.57;;
59167;SDS011;44948;55.046;73.266;2023-01-08T12:57:11;14.57;;;5.55;;
59167;SDS011;44948;55.046;73.266;2023-01-08T13:00:46;12.90;;;4.82;;
59167;SDS011;44948;55.046;73.266;2023-01-08T13:04:45;11.57;;;5.03;;
59167;SDS011;44948;55.046;73.266;2023-01-08T13:06:27;16.38;;;5.82;;
59167;SDS011;44948;55.046;73.266;2023-01-08T13:08:23;10.75;;;3.88;;
59167;SDS011;44948;55.046;73.266;2023-01-08T13:10:08;16.50;;;5.05;;
59167;SDS011;44948;55.046;73.266;2023-01-08T13:12:00;13.18;;;5.78;;
59167;SDS011;44948;55.046;73.266;2023-01-08T13:13:42;24.60;;;8.93;;
59167;SDS011;44948;55.046;73.266;2023-01-08T13:15:27;11.05;;;4.70;;
59167;SDS011;44948;55.046;73.266;2023-01-08T13:17:27;9.27;;;3.35;;
59167;SDS011;44948;55.046;73.266;2023-01-08T13:23:20;7.97;;;2.63;;
59167;SDS011;44948;55.046;73.266;2023-01-08T13:25:37;10.95;;;4.00;;
59167;SDS011;44948;55.046;73.266;2023-01-08T13:29:05;14.27;;;5.72;;
59167;SDS011;44948;55.046;73.266;2023-01-08T13:30:50;25.08;;;6.88;;
59167;SDS011;44948;55.046;73.266;2023-01-08T13:34:37;42.78;;;12.25;;
59167;SDS011;44948;55.046;73.266;2023-01-08T13:36:21;39.88;;;11.30;;
59167;SDS011;44948;55.046;73.266;2023-01-08T13:39:48;42.53;;;12.52;;
59167;SDS011;44948;55.046;73.266;2023-01-08T13:43:58;59.28;;;15.77;;
59167;SDS011;44948;55.046;73.266;2023-01-08T13:45:14;21.33;;;7.82;;
59167;SDS011;44948;55.046;73.266;2023-01-08T13:47:03;19.27;;;7.53;;
59167;SDS011;44948;55.046;73.266;2023-01-08T13:48:48;24.38;;;9.18;;
59167;SDS011;44948;55.046;73.266;2023-01-08T13:50:31;19.52;;;6.97;;
59167;SDS011;44948;55.046;73.266;2023-01-08T13:52:38;11.90;;;4.13;;
59167;SDS011;44948;55.046;73.266;2023-01-08T13:54:21;16.23;;;7.00;;
59167;SDS011;44948;55.046;73.266;2023-01-08T13:56:06;15.68;;;5.13;;
59167;SDS011;44948;55.046;73.266;2023-01-08T13:57:50;10.77;;;4.53;;
59167;SDS011;44948;55.046;73.266;2023-01-08T13:59:37;13.30;;;5.03;;
59167;SDS011;44948;55.046;73.266;2023-01-08T14:01:21;6.03;;;2.78;;
59167;SDS011;44948;55.046;73.266;2023-01-08T14:03:02;12.80;;;4.88;;
59167;SDS011;44948;55.046;73.266;2023-01-08T14:04:47;14.75;;;5.00;;
59167;SDS011;44948;55.046;73.266;2023-01-08T14:06:28;15.27;;;4.85;;
59167;SDS011;44948;55.046;73.266;2023-01-08T14:08:24;14.55;;;5.65;;
59167;SDS011;44948;55.046;73.266;2023-01-08T14:10:07;9.15;;;3.50;;
59167;SDS011;44948;55.046;73.266;2023-01-08T14:11:51;6.63;;;3.35;;
59167;SDS011;44948;55.046;73.266;2023-01-08T14:13:33;17.23;;;7.03;;
59167;SDS011;44948;55.046;73.266;2023-01-08T14:15:23;8.20;;;3.95;;
59167;SDS011;44948;55.046;73.266;2023-01-08T14:17:11;16.10;;;3.95;;
59167;SDS011;44948;55.046;73.266;2023-01-08T14:18:56;11.35;;;3.70;;
59167;SDS011;44948;55.046;73.266;2023-01-08T14:20:40;14.57;;;5.03;;
59167;SDS011;44948;55.046;73.266;2023-01-08T14:22:31;15.95;;;3.97;;
59167;SDS011;44948;55.046;73.266;2023-01-08T14:24:14;13.95;;;4.90;;
59167;SDS011;44948;55.046;73.266;2023-01-08T14:26:01;9.00;;;3.60;;
59167;SDS011;44948;55.046;73.266;2023-01-08T14:27:52;10.35;;;3.95;;
59167;SDS011;44948;55.046;73.266;2023-01-08T14:29:35;13.57;;;3.63;;
59167;SDS011;44948;55.046;73.266;2023-01-08T14:31:20;7.85;;;2.65;;
59167;SDS011;44948;55.046;73.266;2023-01-08T14:33:02;10.50;;;3.33;;
59167;SDS011;44948;55.046;73.266;2023-01-08T14:34:44;14.55;;;5.63;;
59167;SDS011;44948;55.046;73.266;2023-01-08T14:36:27;8.77;;;3.03;;
59167;SDS011;44948;55.046;73.266;2023-01-08T14:38:10;13.13;;;4.72;;
59167;SDS011;44948;55.046;73.266;2023-01-08T14:39:53;9.63;;;3.15;;
59167;SDS011;44948;55.046;73.266;2023-01-08T14:41:35;12.68;;;3.92;;
59167;SDS011;44948;55.046;73.266;2023-01-08T14:43:43;8.85;;;2.92;;
59167;SDS011;44948;55.046;73.266;2023-01-08T14:45:26;11.75;;;3.38;;
59167;SDS011;44948;55.046;73.266;2023-01-08T14:47:14;12.13;;;3.58;;
59167;SDS011;44948;55.046;73.266;2023-01-08T14:48:57;7.18;;;2.75;;
59167;SDS011;44948;55.046;73.266;2023-01-08T14:50:39;11.85;;;3.15;;
59167;SDS011;44948;55.046;73.266;2023-01-08T14:52:21;11.70;;;3.15;;
59167;SDS011;44948;55.046;73.266;2023-01-08T14:54:04;9.85;;;3.55;;
59167;SDS011;44948;55.046;73.266;2023-01-08T14:55:47;16.10;;;4.75;;
59167;SDS011;44948;55.046;73.266;2023-01-08T14:57:29;15.77;;;4.53;;
59167;SDS011;44948;55.046;73.266;2023-01-08T14:59:14;18.50;;;6.35;;
59167;SDS011;44948;55.046;73.266;2023-01-08T15:00:57;12.30;;;3.45;;
59167;SDS011;44948;55.046;73.266;2023-01-08T15:02:40;4.80;;;2.05;;
59167;SDS011;44948;55.046;73.266;2023-01-08T15:04:22;13.32;;;3.70;;
59167;SDS011;44948;55.046;73.266;2023-01-08T15:06:05;13.65;;;3.35;;
59167;SDS011;44948;55.046;73.266;2023-01-08T15:08:18;13.70;;;3.92;;
59167;SDS011;44948;55.046;73.266;2023-01-08T15:10:02;8.43;;;2.75;;
59167;SDS011;44948;55.046;73.266;2023-01-08T15:12:03;12.60;;;4.00;;
59167;SDS011;44948;55.046;73.266;2023-01-08T15:13:46;4.65;;;1.92;;
59167;SDS011;44948;55.046;73.266;2023-01-08T15:15:29;2.90;;;1.30;;
59167;SDS011;44948;55.046;73.266;2023-01-08T15:17:13;14.25;;;4.20;;
59167;SDS011;44948;55.046;73.266;2023-01-08T15:19:00;10.00;;;3.38;;
59167;SDS011;44948;55.046;73.266;2023-01-08T15:20:43;6.70;;;2.17;;
59167;SDS011;44948;55.046;73.266;2023-01-08T15:22:25;11.40;;;3.13;;
59167;SDS011;44948;55.046;73.266;2023-01-08T15:24:14;10.48;;;3.33;;
59167;SDS011;44948;55.046;73.266;2023-01-08T15:26:01;13.32;;;4.20;;
59167;SDS011;44948;55.046;73.266;2023-01-08T15:28:04;8.32;;;3.17;;
59167;SDS011;44948;55.046;73.266;2023-01-08T15:29:47;15.50;;;3.78;;
59167;SDS011;44948;55.046;73.266;2023-01-08T15:31:47;11.40;;;4.35;;
59167;SDS011;44948;55.046;73.266;2023-01-08T15:33:29;10.73;;;3.50;;
59167;SDS011;44948;55.046;73.266;2023-01-08T15:35:12;7.68;;;2.45;;
59167;SDS011;44948;55.046;73.266;2023-01-08T15:36:54;16.60;;;5.93;;
59167;SDS011;44948;55.046;73.266;2023-01-08T15:38:36;16.05;;;5.25;;
59167;SDS011;44948;55.046;73.266;2023-01-08T15:40:18;15.75;;;3.53;;
59167;SDS011;44948;55.046;73.266;2023-01-08T15:42:00;5.40;;;2.10;;
59167;SDS011;44948;55.046;73.266;2023-01-08T15:44:02;6.75;;;1.15;;
59167;SDS011;44948;55.046;73.266;2023-01-08T15:45:45;11.07;;;3.47;;
59167;SDS011;44948;55.046;73.266;2023-01-08T15:47:27;3.25;;;1.60;;
59167;SDS011;44948;55.046;73.266;2023-01-08T15:49:09;6.72;;;1.90;;
59167;SDS011;44948;55.046;73.266;2023-01-08T15:50:51;2.17;;;1.20;;
59167;SDS011;44948;55.046;73.266;2023-01-08T15:52:34;17.70;;;2.20;;
59167;SDS011;44948;55.046;73.266;2023-01-08T15:54:18;6.07;;;2.20;;
59167;SDS011;44948;55.046;73.266;2023-01-08T15:56:01;5.07;;;1.90;;
59167;SDS011;44948;55.046;73.266;2023-01-08T15:57:43;15.73;;;2.78;;
59167;SDS011;44948;55.046;73.266;2023-01-08T15:59:26;17.52;;;6.43;;
59167;SDS011;44948;55.046;73.266;2023-01-08T16:01:08;18.02;;;5.57;;
59167;SDS011;44948;55.046;73.266;2023-01-08T16:02:50;7.15;;;2.67;;
59167;SDS011;44948;55.046;73.266;2023-01-08T16:04:32;6.15;;;2.03;;
59167;SDS011;44948;55.046;73.266;2023-01-08T16:06:14;9.45;;;3.28;;
59167;SDS011;44948;55.046;73.266;2023-01-08T16:07:56;7.45;;;2.88;;
59167;SDS011;44948;55.046;73.266;2023-01-08T16:09:40;10.00;;;2.47;;
59167;SDS011;44948;55.046;73.266;2023-01-08T16:11:22;9.52;;;2.47;;
59167;SDS011;44948;55.046;73.266;2023-01-08T16:13:04;8.43;;;2.53;;
59167;SDS011;44948;55.046;73.266;2023-01-08T16:14:46;12.57;;;3.13;;
59167;SDS011;44948;55.046;73.266;2023-01-08T16:16:28;14.27;;;4.00;;
59167;SDS011;44948;55.046;73.266;2023-01-08T16:18:10;12.02;;;2.85;;
59167;SDS011;44948;55.046;73.266;2023-01-08T16:19:52;10.02;;;3.05;;
59167;SDS011;44948;55.046;73.266;2023-01-08T16:21:34;7.38;;;2.60;;
59167;SDS011;44948;55.046;73.266;2023-01-08T16:23:16;11.85;;;2.33;;
59167;SDS011;44948;55.046;73.266;2023-01-08T16:24:58;7.78;;;1.83;;
59167;SDS011;44948;55.046;73.266;2023-01-08T16:26:40;6.82;;;2.67;;
59167;SDS011;44948;55.046;73.266;2023-01-08T16:28:22;11.57;;;4.05;;
59167;SDS011;44948;55.046;73.266;2023-01-08T16:30:05;14.82;;;4.47;;
59167;SDS011;44948;55.046;73.266;2023-01-08T16:33:29;12.25;;;2.92;;
59167;SDS011;44948;55.046;73.266;2023-01-08T16:35:11;13.95;;;4.20;;
59167;SDS011;44948;55.046;73.266;2023-01-08T16:36:53;14.82;;;4.75;;
59167;SDS011;44948;55.046;73.266;2023-01-08T16:38:35;9.63;;;2.92;;
59167;SDS011;44948;55.046;73.266;2023-01-08T16:40:17;12.23;;;2.78;;
59167;SDS011;44948;55.046;73.266;2023-01-08T16:41:59;6.03;;;1.98;;
59167;SDS011;44948;55.046;73.266;2023-01-08T16:43:41;15.52;;;2.35;;
59167;SDS011;44948;55.046;73.266;2023-01-08T16:45:25;13.27;;;2.47;;
59167;SDS011;44948;55.046;73.266;2023-01-08T16:47:08;8.70;;;2.45;;
59167;SDS011;44948;55.046;73.266;2023-01-08T16:48:50;2.65;;;1.58;;
59167;SDS011;44948;55.046;73.266;2023-01-08T16:50:31;6.50;;;3.33;;
59167;SDS011;44948;55.046;73.266;2023-01-08T16:52:13;6.50;;;2.58;;
59167;SDS011;44948;55.046;73.266;2023-01-08T16:53:55;6.63;;;1.45;;
59167;SDS011;44948;55.046;73.266;2023-01-08T16:55:40;4.25;;;1.55;;
59167;SDS011;44948;55.046;73.266;2023-01-08T16:57:22;5.28;;;2.08;;
59167;SDS011;44948;55.046;73.266;2023-01-08T16:59:03;9.52;;;3.25;;
59167;SDS011;44948;55.046;73.266;2023-01-08T17:00:46;7.43;;;1.38;;
59167;SDS011;44948;55.046;73.266;2023-01-08T17:04:10;6.55;;;2.13;;
59167;SDS011;44948;55.046;73.266;2023-01-08T17:05:52;6.70;;;1.42;;
59167;SDS011;44948;55.046;73.266;2023-01-08T17:07:36;8.32;;;2.13;;
59167;SDS011;44948;55.046;73.266;2023-01-08T17:09:18;6.78;;;2.17;;
59167;SDS011;44948;55.046;73.266;2023-01-08T17:11:04;10.07;;;2.22;;
59167;SDS011;44948;55.046;73.266;2023-01-08T17:12:46;6.82;;;1.75;;
59167;SDS011;44948;55.046;73.266;2023-01-08T17:14:28;9.70;;;3.08;;
59167;SDS011;44948;55.046;73.266;2023-01-08T17:16:11;2.60;;;1.23;;
59167;SDS011;44948;55.046;73.266;2023-01-08T17:17:53;12.35;;;2.75;;
59167;SDS011;44948;55.046;73.266;2023-01-08T17:19:36;17.90;;;2.97;;
59167;SDS011;44948;55.046;73.266;2023-01-08T17:21:19;10.32;;;2.17;;
59167;SDS011;44948;55.046;73.266;2023-01-08T17:23:01;6.75;;;2.13;;
59167;SDS011;44948;55.046;73.266;2023-01-08T17:24:43;2.10;;;0.80;;
59167;SDS011;44948;55.046;73.266;2023-01-08T17:26:24;2.78;;;1.27;;
59167;SDS011;44948;55.046;73.266;2023-01-08T17:28:06;8.15;;;1.92;;
59167;SDS011;44948;55.046;73.266;2023-01-08T17:29:48;10.07;;;2.95;;
59167;SDS011;44948;55.046;73.266;2023-01-08T17:31:30;9.05;;;2.17;;
59167;SDS011;44948;55.046;73.266;2023-01-08T17:33:19;4.63;;;1.50;;
59167;SDS011;44948;55.046;73.266;2023-01-08T17:35:01;4.95;;;1.58;;
59167;SDS011;44948;55.046;73.266;2023-01-08T17:36:43;7.80;;;1.88;;
59167;SDS011;44948;55.046;73.266;2023-01-08T17:38:25;9.70;;;1.65;;
59167;SDS011;44948;55.046;73.266;2023-01-08T17:40:07;4.28;;;1.98;;
59167;SDS011;44948;55.046;73.266;2023-01-08T17:41:58;5.82;;;2.25;;
59167;SDS011;44948;55.046;73.266;2023-01-08T17:43:58;7.40;;;2.88;;
59167;SDS011;44948;55.046;73.266;2023-01-08T17:45:40;2.70;;;1.25;;
59167;SDS011;44948;55.046;73.266;2023-01-08T17:47:23;10.85;;;1.85;;
59167;SDS011;44948;55.046;73.266;2023-01-08T17:49:05;4.75;;;2.10;;
59167;SDS011;44948;55.046;73.266;2023-01-08T17:50:47;3.80;;;1.15;;
59167;SDS011;44948;55.046;73.266;2023-01-08T17:52:29;1.83;;;1.13;;
59167;SDS011;44948;55.046;73.266;2023-01-08T17:54:11;1.70;;;0.77;;
59167;SDS011;44948;55.046;73.266;2023-01-08T17:55:56;1.85;;;1.00;;
59167;SDS011;44948;55.046;73.266;2023-01-08T17:57:39;8.02;;;1.80;;
59167;SDS011;44948;55.046;73.266;2023-01-08T17:59:21;12.23;;;2.42;;
59167;SDS011;44948;55.046;73.266;2023-01-08T18:01:07;9.68;;;2.22;;
59167;SDS011;44948;55.046;73.266;2023-01-08T18:02:53;3.97;;;1.20;;
59167;SDS011;44948;55.046;73.266;2023-01-08T18:04:35;4.97;;;1.83;;
59167;SDS011;44948;55.046;73.266;2023-01-08T18:06:19;5.47;;;1.70;;
59167;SDS011;44948;55.046;73.266;2023-01-08T18:08:02;6.47;;;2.67;;
59167;SDS011;44948;55.046;73.266;2023-01-08T18:09:44;5.78;;;2.05;;
59167;SDS011;44948;55.046;73.266;2023-01-08T18:11:26;5.97;;;2.05;;
59167;SDS011;44948;55.046;73.266;2023-01-08T18:13:08;8.80;;;2.38;;
59167;SDS011;44948;55.046;73.266;2023-01-08T18:14:50;3.92;;;1.77;;
59167;SDS011;44948;55.046;73.266;2023-01-08T18:16:32;0.43;;;0.32;;
59167;SDS011;44948;55.046;73.266;2023-01-08T18:18:14;9.45;;;3.08;;
59167;SDS011;44948;55.046;73.266;2023-01-08T18:19:58;6.05;;;2.45;;
59167;SDS011;44948;55.046;73.266;2023-01-08T18:21:40;4.90;;;1.52;;
59167;SDS011;44948;55.046;73.266;2023-01-08T18:23:22;2.10;;;1.25;;
59167;SDS011;44948;55.046;73.266;2023-01-08T18:25:04;6.90;;;1.98;;
59167;SDS011;44948;55.046;73.266;2023-01-08T18:26:47;2.58;;;0.98;;
59167;SDS011;44948;55.046;73.266;2023-01-08T18:28:29;2.28;;;1.15;;
59167;SDS011;44948;55.046;73.266;2023-01-08T18:30:11;8.57;;;2.72;;
59167;SDS011;44948;55.046;73.266;2023-01-08T18:31:53;15.07;;;1.63;;
59167;SDS011;44948;55.046;73.266;2023-01-08T18:33:38;4.72;;;1.80;;
59167;SDS011;44948;55.046;73.266;2023-01-08T18:35:20;2.72;;;1.00;;
59167;SDS011;44948;55.046;73.266;2023-01-08T18:37:02;4.50;;;1.58;;
59167;SDS011;44948;55.046;73.266;2023-01-08T18:38:44;9.60;;;2.17;;
59167;SDS011;44948;55.046;73.266;2023-01-08T18:40:26;4.05;;;1.90;;
59167;SDS011;44948;55.046;73.266;2023-01-08T18:42:08;6.78;;;2.67;;
59167;SDS011;44948;55.046;73.266;2023-01-08T18:44:08;4.45;;;1.27;;
59167;SDS011;44948;55.046;73.266;2023-01-08T18:45:51;2.83;;;1.48;;
59167;SDS011;44948;55.046;73.266;2023-01-08T18:47:38;6.63;;;2.13;;
59167;SDS011;44948;55.046;73.266;2023-01-08T18:49:20;4.38;;;1.70;;
59167;SDS011;44948;55.046;73.266;2023-01-08T18:51:03;8.38;;;2.22;;
59167;SDS011;44948;55.046;73.266;2023-01-08T18:52:47;3.58;;;1.27;;
59167;SDS011;44948;55.046;73.266;2023-01-08T18:54:29;3.38;;;1.10;;
59167;SDS011;44948;55.046;73.266;2023-01-08T18:56:15;1.27;;;0.65;;
59167;SDS011;44948;55.046;73.266;2023-01-08T18:58:00;5.07;;;1.67;;
59167;SDS011;44948;55.046;73.266;2023-01-08T18:59:43;3.13;;;1.55;;
59167;SDS011;44948;55.046;73.266;2023-01-08T19:01:25;5.10;;;1.55;;
59167;SDS011;44948;55.046;73.266;2023-01-08T19:03:08;5.90;;;1.88;;
59167;SDS011;44948;55.046;73.266;2023-01-08T19:04:50;5.60;;;2.00;;
59167;SDS011;44948;55.046;73.266;2023-01-08T19:06:32;3.13;;;1.40;;
59167;SDS011;44948;55.046;73.266;2023-01-08T19:08:16;3.53;;;1.33;;
59167;SDS011;44948;55.046;73.266;2023-01-08T19:09:58;9.57;;;2.78;;
59167;SDS011;44948;55.046;73.266;2023-01-08T19:11:41;3.33;;;1.13;;
59167;SDS011;44948;55.046;73.266;2023-01-08T19:13:23;7.55;;;2.10;;
59167;SDS011;44948;55.046;73.266;2023-01-08T19:15:05;5.82;;;1.75;;
59167;SDS011;44948;55.046;73.266;2023-01-08T19:16:47;4.15;;;1.55;;
59167;SDS011;44948;55.046;73.266;2023-01-08T19:18:31;2.15;;;0.57;;
59167;SDS011;44948;55.046;73.266;2023-01-08T19:20:14;1.83;;;0.88;;
59167;SDS011;44948;55.046;73.266;2023-01-08T19:21:55;3.17;;;1.10;;
59167;SDS011;44948;55.046;73.266;2023-01-08T19:23:37;10.77;;;2.38;;
59167;SDS011;44948;55.046;73.266;2023-01-08T19:25:19;3.97;;;1.30;;
59167;SDS011;44948;55.046;73.266;2023-01-08T19:27:02;6.78;;;1.92;;
59167;SDS011;44948;55.046;73.266;2023-01-08T19:28:44;6.95;;;2.67;;
59167;SDS011;44948;55.046;73.266;2023-01-08T19:30:28;6.93;;;2.13;;
59167;SDS011;44948;55.046;73.266;2023-01-08T19:32:10;6.68;;;1.60;;
59167;SDS011;44948;55.046;73.266;2023-01-08T19:33:52;4.55;;;1.50;;
59167;SDS011;44948;55.046;73.266;2023-01-08T19:35:38;3.38;;;1.20;;
59167;SDS011;44948;55.046;73.266;2023-01-08T19:37:20;5.80;;;2.15;;
59167;SDS011;44948;55.046;73.266;2023-01-08T19:39:02;13.98;;;1.48;;
59167;SDS011;44948;55.046;73.266;2023-01-08T19:40:45;2.38;;;1.25;;
59167;SDS011;44948;55.046;73.266;2023-01-08T19:42:27;6.43;;;2.88;;
59167;SDS011;44948;55.046;73.266;2023-01-08T19:44:27;3.00;;;1.08;;
59167;SDS011;44948;55.046;73.266;2023-01-08T19:46:10;3.28;;;1.20;;
59167;SDS011;44948;55.046;73.266;2023-01-08T19:47:55;5.75;;;1.27;;
59167;SDS011;44948;55.046;73.266;2023-01-08T19:49:37;4.15;;;0.77;;
59167;SDS011;44948;55.046;73.266;2023-01-08T19:51:21;5.30;;;1.95;;
59167;SDS011;44948;55.046;73.266;2023-01-08T19:53:04;3.60;;;1.33;;
59167;SDS011;44948;55.046;73.266;2023-01-08T19:54:46;7.00;;;1.50;;
59167;SDS011;44948;55.046;73.266;2023-01-08T19:56:28;1.23;;;0.77;;
59167;SDS011;44948;55.046;73.266;2023-01-08T19:58:10;1.85;;;1.08;;
59167;SDS011;44948;55.046;73.266;2023-01-08T19:59:53;4.88;;;1.75;;
59167;SDS011;44948;55.046;73.266;2023-01-08T20:01:35;0.77;;;0.50;;
59167;SDS011;44948;55.046;73.266;2023-01-08T20:03:17;3.72;;;1.05;;
59167;SDS011;44948;55.046;73.266;2023-01-08T20:05:04;4.35;;;1.05;;
59167;SDS011;44948;55.046;73.266;2023-01-08T20:06:45;1.85;;;0.57;;
59167;SDS011;44948;55.046;73.266;2023-01-08T20:08:27;1.35;;;0.82;;
59167;SDS011;44948;55.046;73.266;2023-01-08T20:10:09;7.20;;;2.80;;
59167;SDS011;44948;55.046;73.266;2023-01-08T20:11:52;4.70;;;1.88;;
59167;SDS011;44948;55.046;73.266;2023-01-08T20:13:34;9.20;;;2.92;;
59167;SDS011;44948;55.046;73.266;2023-01-08T20:15:17;2.50;;;1.38;;
59167;SDS011;44948;55.046;73.266;2023-01-08T20:16:59;8.93;;;3.72;;
59167;SDS011;44948;55.046;73.266;2023-01-08T20:18:41;4.78;;;2.03;;
59167;SDS011;44948;55.046;73.266;2023-01-08T20:20:23;3.17;;;1.45;;
59167;SDS011;44948;55.046;73.266;2023-01-08T20:22:05;3.95;;;1.38;;
59167;SDS011;44948;55.046;73.266;2023-01-08T20:23:47;8.55;;;3.40;;
59167;SDS011;44948;55.046;73.266;2023-01-08T20:25:29;2.67;;;0.88;;
59167;SDS011;44948;55.046;73.266;2023-01-08T20:27:11;0.85;;;0.52;;
59167;SDS011;44948;55.046;73.266;2023-01-08T20:28:53;6.20;;;2.47;;
59167;SDS011;44948;55.046;73.266;2023-01-08T20:30:36;14.68;;;6.28;;
59167;SDS011;44948;55.046;73.266;2023-01-08T20:32:18;26.88;;;7.97;;
59167;SDS011;44948;55.046;73.266;2023-01-08T20:34:01;11.05;;;2.85;;
59167;SDS011;44948;55.046;73.266;2023-01-08T20:35:44;1.40;;;0.77;;
59167;SDS011;44948;55.046;73.266;2023-01-08T20:37:26;2.83;;;0.90;;
59167;SDS011;44948;55.046;73.266;2023-01-08T20:39:13;2.55;;;0.75;;
59167;SDS011;44948;55.046;73.266;2023-01-08T20:40:55;4.28;;;1.35;;
59167;SDS011;44948;55.046;73.266;2023-01-08T20:42:37;0.87;;;0.53;;
59167;SDS011;44948;55.046;73.266;2023-01-08T20:44:21;3.45;;;1.20;;
59167;SDS011;44948;55.046;73.266;2023-01-08T20:46:03;4.25;;;1.67;;
59167;SDS011;44948;55.046;73.266;2023-01-08T20:47:46;4.63;;;1.60;;
59167;SDS011;44948;55.046;73.266;2023-01-08T20:51:10;2.03;;;0.75;;
59167;SDS011;44948;55.046;73.266;2023-01-08T20:52:55;1.05;;;0.98;;
59167;SDS011;44948;55.046;73.266;2023-01-08T20:54:37;4.38;;;2.05;;
59167;SDS011;44948;55.046;73.266;2023-01-08T20:56:19;1.65;;;1.50;;
59167;SDS011;44948;55.046;73.266;2023-01-08T20:58:01;2.03;;;1.20;;
59167;SDS011;44948;55.046;73.266;2023-01-08T20:59:43;4.28;;;1.27;;
59167;SDS011;44948;55.046;73.266;2023-01-08T21:01:25;3.85;;;1.10;;
59167;SDS011;44948;55.046;73.266;2023-01-08T21:03:16;4.72;;;1.17;;
59167;SDS011;44948;55.046;73.266;2023-01-08T21:04:59;3.97;;;1.80;;
59167;SDS011;44948;55.046;73.266;2023-01-08T21:06:41;1.42;;;1.10;;
59167;SDS011;44948;55.046;73.266;2023-01-08T21:08:23;5.20;;;2.20;;
59167;SDS011;44948;55.046;73.266;2023-01-08T21:10:05;3.72;;;0.93;;